createdAt,value
2023-04-26T00:00:48.560Z,99.90
2023-04-26T00:03:16.508Z,99.90
2023-04-26T00:05:44.442Z,99.90
2023-04-26T00:08:11.723Z,99.90
2023-04-26T00:10:38.542Z,99.90
2023-04-26T00:13:05.255Z,99.90
2023-04-26T00:15:32.096Z,99.90
2023-04-26T00:17:58.887Z,99.90
2023-04-26T00:20:25.615Z,99.90
2023-04-26T00:22:52.313Z,99.90
2023-04-26T00:25:19.096Z,99.90
2023-04-26T00:27:45.842Z,99.90
2023-04-26T00:30:14.658Z,99.90
2023-04-26T00:32:41.395Z,99.90
2023-04-26T00:35:09.848Z,99.90
2023-04-26T00:37:36.586Z,99.90
2023-04-26T00:40:04.690Z,99.90
2023-04-26T00:42:31.410Z,99.90
2023-04-26T00:45:00.437Z,99.90
2023-04-26T00:47:37.450Z,99.90
2023-04-26T00:50:08.123Z,99.90
2023-04-26T00:52:36.861Z,99.90
2023-04-26T00:55:05.390Z,99.90
2023-04-26T00:57:35.208Z,99.90
2023-04-26T01:00:01.945Z,99.90
2023-04-26T01:02:28.957Z,99.90
2023-04-26T01:04:55.814Z,99.90
2023-04-26T01:07:23.242Z,99.90
2023-04-26T01:09:50.020Z,99.90
2023-04-26T01:12:16.816Z,99.90
2023-04-26T01:14:44.186Z,99.90
2023-04-26T01:17:11.016Z,99.90
2023-04-26T01:19:49.774Z,99.90
2023-04-26T01:22:16.477Z,99.90
2023-04-26T01:24:45.106Z,99.90
2023-04-26T01:27:12.244Z,99.90
2023-04-26T01:29:38.920Z,99.90
2023-04-26T01:32:06.130Z,99.90
2023-04-26T01:34:34.197Z,99.90
2023-04-26T01:37:01.243Z,99.90
2023-04-26T01:39:29.275Z,99.90
2023-04-26T01:41:58.810Z,99.90
2023-04-26T01:44:25.533Z,99.90
2023-04-26T01:46:52.505Z,99.90
2023-04-26T01:49:19.258Z,99.90
2023-04-26T01:51:45.914Z,99.90
2023-04-26T01:54:12.584Z,99.90
2023-04-26T01:56:39.472Z,99.90
2023-04-26T01:59:06.217Z,99.90
2023-04-26T02:01:33.139Z,99.90
2023-04-26T02:04:00.022Z,99.90
2023-04-26T02:06:26.666Z,99.90
2023-04-26T02:08:54.240Z,99.90
2023-04-26T02:11:21.106Z,99.90
2023-04-26T02:13:49.410Z,99.90
2023-04-26T02:18:51.805Z,99.90
2023-04-26T02:21:20.670Z,99.90
2023-04-26T02:23:48.232Z,99.90
2023-04-26T02:26:18.166Z,99.90
2023-04-26T02:28:46.251Z,99.90
2023-04-26T02:31:16.779Z,99.90
2023-04-26T02:33:44.754Z,99.90
2023-04-26T02:36:11.462Z,99.90
2023-04-26T02:38:38.186Z,99.90
2023-04-26T02:41:05.043Z,99.90
2023-04-26T02:43:31.754Z,99.90
2023-04-26T02:45:58.453Z,99.90
2023-04-26T02:48:25.241Z,99.90
2023-04-26T02:50:51.926Z,99.90
2023-04-26T02:53:18.729Z,99.90
2023-04-26T02:55:45.421Z,99.90
2023-04-26T02:58:12.091Z,99.90
2023-04-26T03:00:38.850Z,99.90
2023-04-26T03:03:05.793Z,99.90
2023-04-26T03:05:32.502Z,99.90
2023-04-26T03:08:00.475Z,99.90
2023-04-26T03:10:27.127Z,99.90
2023-04-26T03:12:54.008Z,99.90
2023-04-26T03:15:21.880Z,99.90
2023-04-26T03:17:52.148Z,99.90
2023-04-26T03:20:18.892Z,99.90
2023-04-26T03:22:45.906Z,99.90
2023-04-26T03:25:12.584Z,99.90
2023-04-26T03:27:39.251Z,99.90
2023-04-26T03:30:06.771Z,99.90
2023-04-26T03:32:33.519Z,99.90
2023-04-26T03:35:00.576Z,99.90
2023-04-26T03:37:27.369Z,99.90
2023-04-26T03:39:54.189Z,99.90
2023-04-26T03:42:21.344Z,99.90
2023-04-26T03:44:49.223Z,99.90
2023-04-26T03:47:15.921Z,99.90
2023-04-26T03:49:43.924Z,99.90
2023-04-26T03:52:11.778Z,99.90
2023-04-26T03:54:39.015Z,99.90
2023-04-26T03:57:06.908Z,99.90
2023-04-26T03:59:35.886Z,99.90
2023-04-26T04:02:02.590Z,99.90
2023-04-26T04:04:29.473Z,99.90
2023-04-26T04:06:56.291Z,99.90
2023-04-26T04:09:22.959Z,99.90
2023-04-26T04:11:49.652Z,99.90
2023-04-26T04:14:16.422Z,99.90
2023-04-26T04:16:43.108Z,99.90
2023-04-26T04:19:09.880Z,99.90
2023-04-26T04:21:37.963Z,99.90
2023-04-26T04:24:04.868Z,99.90
2023-04-26T04:26:32.880Z,99.90
2023-04-26T04:29:03.336Z,99.90
2023-04-26T04:31:31.213Z,99.90
2023-04-26T04:33:59.245Z,99.90
2023-04-26T04:36:26.257Z,99.90
2023-04-26T04:38:53.162Z,99.90
2023-04-26T04:41:20.058Z,99.90
2023-04-26T04:43:46.716Z,99.90
2023-04-26T04:46:13.452Z,99.90
2023-04-26T04:48:42.404Z,99.90
2023-04-26T04:51:09.112Z,99.90
2023-04-26T04:53:36.003Z,99.90
2023-04-26T04:56:03.927Z,99.90
2023-04-26T04:58:30.685Z,99.90
2023-04-26T05:00:58.640Z,99.90
2023-04-26T05:03:25.557Z,99.90
2023-04-26T05:05:55.126Z,99.90
2023-04-26T05:08:21.809Z,99.90
2023-04-26T05:10:48.465Z,99.90
2023-04-26T05:13:15.163Z,99.90
2023-04-26T05:15:41.881Z,99.90
2023-04-26T05:18:08.551Z,99.90
2023-04-26T05:20:35.296Z,99.90
2023-04-26T05:23:02.053Z,99.90
2023-04-26T05:25:28.740Z,99.90
2023-04-26T05:27:55.424Z,99.90
2023-04-26T05:30:22.226Z,99.90
2023-04-26T05:32:48.970Z,99.90
2023-04-26T05:35:17.265Z,99.90
2023-04-26T05:37:47.277Z,99.90
2023-04-26T05:40:14.202Z,99.90
2023-04-26T05:42:40.891Z,99.90
2023-04-26T05:45:08.212Z,99.90
2023-04-26T05:47:34.963Z,99.90
2023-04-26T05:50:01.653Z,99.90
2023-04-26T05:52:28.270Z,99.90
2023-04-26T05:54:54.929Z,99.90
2023-04-26T05:57:21.714Z,99.90
2023-04-26T05:59:48.434Z,99.90
2023-04-26T06:02:16.329Z,99.90
2023-04-26T06:04:43.231Z,99.90
2023-04-26T06:07:11.970Z,99.90
2023-04-26T06:09:39.976Z,99.90
2023-04-26T06:12:10.204Z,99.90
2023-04-26T06:14:36.876Z,99.90
2023-04-26T06:17:03.654Z,99.90
2023-04-26T06:19:30.359Z,99.90
2023-04-26T06:21:57.161Z,99.90
2023-04-26T06:24:24.381Z,99.90
2023-04-26T06:26:51.147Z,99.90
2023-04-26T06:29:18.140Z,99.90
2023-04-26T06:31:44.825Z,99.90
2023-04-26T06:34:14.414Z,99.90
2023-04-26T06:36:42.677Z,99.90
2023-04-26T06:39:09.961Z,99.90
2023-04-26T06:41:36.676Z,99.90
2023-04-26T06:44:06.348Z,99.90
2023-04-26T06:46:33.399Z,99.90
2023-04-26T06:49:01.351Z,99.90
2023-04-26T06:51:28.114Z,99.90
2023-04-26T06:53:55.093Z,99.90
2023-04-26T06:56:21.958Z,99.90
2023-04-26T06:59:05.891Z,99.90
2023-04-26T07:01:33.879Z,99.90
2023-04-26T07:04:02.535Z,99.90
2023-04-26T07:06:30.410Z,99.90
2023-04-26T07:08:59.514Z,99.90
2023-04-26T07:11:26.851Z,99.90
2023-04-26T07:13:55.876Z,99.90
2023-04-26T07:16:23.024Z,99.90
2023-04-26T07:18:50.886Z,99.90
2023-04-26T07:21:19.635Z,99.90
2023-04-26T07:23:46.367Z,99.90
2023-04-26T07:26:13.373Z,99.90
2023-04-26T07:28:40.110Z,99.90
2023-04-26T07:31:09.160Z,99.90
2023-04-26T07:33:36.908Z,99.90
2023-04-26T07:36:03.957Z,99.90
2023-04-26T07:38:30.697Z,99.90
2023-04-26T07:40:57.376Z,99.90
2023-04-26T07:43:24.092Z,99.90
2023-04-26T07:45:50.921Z,99.90
2023-04-26T07:48:17.796Z,99.90
2023-04-26T07:50:45.884Z,99.90
2023-04-26T07:53:15.470Z,99.90
2023-04-26T07:55:43.693Z,99.90
2023-04-26T07:58:11.870Z,99.90
2023-04-26T08:00:43.878Z,99.90
2023-04-26T08:03:10.792Z,99.90
2023-04-26T08:05:37.961Z,99.90
2023-04-26T08:08:07.540Z,99.90
2023-04-26T08:10:34.231Z,99.90
2023-04-26T08:13:00.928Z,99.90
2023-04-26T08:15:27.622Z,99.90
2023-04-26T08:17:54.618Z,99.90
2023-04-26T08:20:21.428Z,99.90
2023-04-26T08:22:50.487Z,99.90
2023-04-26T08:25:17.175Z,99.90
2023-04-26T08:27:45.037Z,99.90
2023-04-26T08:30:15.593Z,99.90
2023-04-26T08:32:43.639Z,99.90
2023-04-26T08:35:10.570Z,99.90
2023-04-26T08:37:41.517Z,99.90
2023-04-26T08:40:10.127Z,99.90
2023-04-26T08:42:45.170Z,99.90
2023-04-26T08:45:13.491Z,99.90
2023-04-26T08:47:53.472Z,99.90
2023-04-26T08:50:23.248Z,99.90
2023-04-26T08:52:56.352Z,99.90
2023-04-26T08:55:24.803Z,99.90
2023-04-26T08:57:51.457Z,99.90
2023-04-26T09:00:22.669Z,99.90
2023-04-26T09:03:00.108Z,99.90
2023-04-26T09:05:28.335Z,99.90
2023-04-26T09:08:04.133Z,99.90
2023-04-26T09:10:31.778Z,99.90
2023-04-26T09:12:58.721Z,99.90
2023-04-26T09:15:27.314Z,99.90
2023-04-26T09:17:56.516Z,99.90
2023-04-26T09:20:28.854Z,99.90
2023-04-26T09:23:06.690Z,99.90
2023-04-26T09:25:33.778Z,99.90
2023-04-26T09:28:01.698Z,99.90
2023-04-26T09:30:32.205Z,99.90
2023-04-26T09:33:01.345Z,99.90
2023-04-26T09:35:30.758Z,99.90
2023-04-26T09:38:13.124Z,99.90
2023-04-26T09:40:45.306Z,99.90
2023-04-26T09:43:19.281Z,99.90
2023-04-26T09:45:58.700Z,99.90
2023-04-26T09:48:28.556Z,99.90
2023-04-26T09:50:58.287Z,99.90
2023-04-26T09:53:34.783Z,99.90
2023-04-26T09:56:21.389Z,99.90
2023-04-26T09:59:00.765Z,99.90
2023-04-26T10:01:28.912Z,99.90
2023-04-26T10:03:57.321Z,99.90
2023-04-26T10:06:24.600Z,99.90
2023-04-26T10:08:51.492Z,99.90
2023-04-26T10:11:21.536Z,99.90
2023-04-26T10:13:51.058Z,99.90
2023-04-26T10:16:21.305Z,99.90
2023-04-26T10:18:49.375Z,99.90
2023-04-26T10:21:21.333Z,99.90
2023-04-26T10:23:52.631Z,99.90
2023-04-26T10:26:50.482Z,99.90
2023-04-26T10:29:20.253Z,99.90
2023-04-26T10:32:02.396Z,99.90
2023-04-26T10:34:30.579Z,99.90
2023-04-26T10:37:07.776Z,99.90
2023-04-26T10:39:35.996Z,99.90
2023-04-26T10:42:25.940Z,99.90
2023-04-26T10:44:56.780Z,99.90
2023-04-26T10:47:34.943Z,99.90
2023-04-26T10:50:05.602Z,99.90
2023-04-26T10:52:33.651Z,99.90
2023-04-26T10:55:00.989Z,99.90
2023-04-26T10:57:53.590Z,99.90
2023-04-26T11:00:32.068Z,99.90
2023-04-26T11:03:03.505Z,99.90
2023-04-26T11:05:38.327Z,99.90
2023-04-26T11:08:14.218Z,99.90
2023-04-26T11:10:41.176Z,99.90
2023-04-26T11:13:07.930Z,99.90
2023-04-26T11:15:35.184Z,99.90
2023-04-26T11:18:03.497Z,99.90
2023-04-26T11:20:31.941Z,99.40
2023-04-26T11:22:59.066Z,98.80
2023-04-26T11:25:29.451Z,98.40
2023-04-26T11:28:03.104Z,97.90
2023-04-26T11:30:31.704Z,96.10
2023-04-26T11:33:02.978Z,96.20
2023-04-26T11:35:30.071Z,96.00
2023-04-26T11:38:00.177Z,96.40
2023-04-26T11:40:34.375Z,94.60
2023-04-26T11:43:06.045Z,93.80
2023-04-26T11:45:36.006Z,93.90
2023-04-26T11:48:06.978Z,93.50
2023-04-26T11:50:40.686Z,93.90
2023-04-26T11:53:20.197Z,93.80
2023-04-26T11:55:48.070Z,93.30
2023-04-26T11:58:15.626Z,93.20
2023-04-26T12:01:02.161Z,93.40
2023-04-26T12:03:33.236Z,92.80
2023-04-26T12:06:01.288Z,92.60
2023-04-26T12:08:28.949Z,92.70
2023-04-26T12:11:02.238Z,91.80
2023-04-26T12:13:31.790Z,91.70
2023-04-26T12:16:15.185Z,91.70
2023-04-26T12:18:53.516Z,92.00
2023-04-26T12:21:21.214Z,91.30
2023-04-26T12:23:51.781Z,91.30
2023-04-26T12:26:19.620Z,90.80
2023-04-26T12:28:50.061Z,90.10
2023-04-26T12:31:20.015Z,90.00
2023-04-26T12:33:50.304Z,90.30
2023-04-26T12:36:16.939Z,90.40
2023-04-26T12:38:43.590Z,90.80
2023-04-26T12:41:10.613Z,91.00
2023-04-26T12:43:37.350Z,91.20
2023-04-26T12:46:04.285Z,91.60
2023-04-26T12:48:31.249Z,92.00
2023-04-26T12:50:57.899Z,92.60
2023-04-26T12:53:24.552Z,93.10
2023-04-26T12:55:51.328Z,93.50
2023-04-26T12:58:22.463Z,92.80
2023-04-26T13:00:50.681Z,92.10
2023-04-26T13:03:17.894Z,91.50
2023-04-26T13:05:46.010Z,91.30
2023-04-26T13:08:14.207Z,90.80
2023-04-26T13:10:44.764Z,89.50
2023-04-26T13:13:12.832Z,89.40
2023-04-26T13:15:42.298Z,88.30
2023-04-26T13:18:18.756Z,85.20
2023-04-26T13:20:45.685Z,85.30
2023-04-26T13:23:12.373Z,84.40
2023-04-26T13:25:39.089Z,83.20
2023-04-26T13:28:05.740Z,83.60
2023-04-26T13:30:32.435Z,83.70
2023-04-26T13:33:00.230Z,84.00
2023-04-26T13:35:27.235Z,83.90
2023-04-26T13:37:53.914Z,81.30
2023-04-26T13:40:20.606Z,80.40
2023-04-26T13:42:47.297Z,80.40
2023-04-26T13:45:14.118Z,81.60
2023-04-26T13:47:41.874Z,81.60
2023-04-26T13:50:09.004Z,80.50
2023-04-26T13:52:36.982Z,81.20
2023-04-26T13:55:03.802Z,80.20
2023-04-26T13:57:31.946Z,79.90
2023-04-26T13:59:58.721Z,82.40
2023-04-26T14:02:26.926Z,86.90
2023-04-26T14:04:58.378Z,86.80
2023-04-26T14:07:28.672Z,88.60
2023-04-26T14:09:55.340Z,87.70
2023-04-26T14:12:21.984Z,84.80
2023-04-26T14:14:48.672Z,82.60
2023-04-26T14:17:15.353Z,82.20
2023-04-26T14:19:42.018Z,81.50
2023-04-26T14:22:08.911Z,80.20
2023-04-26T14:24:35.693Z,80.30
2023-04-26T14:27:02.382Z,80.80
2023-04-26T14:29:29.085Z,83.70
2023-04-26T14:31:55.810Z,84.10
2023-04-26T14:34:22.534Z,81.50
2023-04-26T14:36:50.288Z,81.80
2023-04-26T14:39:17.023Z,82.00
2023-04-26T14:41:45.482Z,81.20
2023-04-26T14:44:15.556Z,81.40
2023-04-26T14:46:45.763Z,82.10
2023-04-26T14:49:14.132Z,82.60
2023-04-26T14:51:51.199Z,82.00
2023-04-26T14:54:21.300Z,81.90
2023-04-26T14:56:51.371Z,83.20
2023-04-26T14:59:18.296Z,82.50
2023-04-26T15:01:45.408Z,83.40
2023-04-26T15:04:15.239Z,83.20
2023-04-26T15:06:42.375Z,83.80
2023-04-26T15:09:09.237Z,83.40
2023-04-26T15:11:36.010Z,84.20
2023-04-26T15:14:02.816Z,84.50
2023-04-26T15:16:29.698Z,84.40
2023-04-26T15:18:56.546Z,84.80
2023-04-26T15:21:23.260Z,84.70
2023-04-26T15:23:50.122Z,83.80
2023-04-26T15:26:16.884Z,84.50
2023-04-26T15:28:43.668Z,84.30
2023-04-26T15:31:11.704Z,82.10
2023-04-26T15:33:38.371Z,81.80
2023-04-26T15:36:05.565Z,81.30
2023-04-26T15:38:34.497Z,81.90
2023-04-26T15:41:01.362Z,81.60
2023-04-26T15:43:28.226Z,81.90
2023-04-26T15:45:55.182Z,81.60
2023-04-26T15:48:21.939Z,81.90
2023-04-26T15:50:48.875Z,81.30
2023-04-26T15:53:18.697Z,81.90
2023-04-26T15:55:49.584Z,82.30
2023-04-26T15:58:17.030Z,82.60
2023-04-26T16:00:47.403Z,82.30
2023-04-26T16:03:19.815Z,82.10
2023-04-26T16:05:47.322Z,81.90
2023-04-26T16:08:17.664Z,81.10
2023-04-26T16:10:51.453Z,80.80
2023-04-26T16:13:18.436Z,81.10
2023-04-26T16:15:45.445Z,81.60
2023-04-26T16:18:12.374Z,82.40
2023-04-26T16:20:39.110Z,82.50
2023-04-26T16:23:05.841Z,82.70
2023-04-26T16:25:32.532Z,83.10
2023-04-26T16:27:59.258Z,83.60
2023-04-26T16:30:27.097Z,83.30
2023-04-26T16:32:56.111Z,83.70
2023-04-26T16:35:22.836Z,84.20
2023-04-26T16:37:49.591Z,84.40
2023-04-26T16:40:16.425Z,85.20
2023-04-26T16:42:44.445Z,85.50
2023-04-26T16:45:13.240Z,86.10
2023-04-26T16:47:41.527Z,86.70
2023-04-26T16:50:08.526Z,87.00
2023-04-26T16:52:35.296Z,87.50
2023-04-26T16:55:02.114Z,87.70
2023-04-26T16:57:28.843Z,87.90
2023-04-26T16:59:55.685Z,87.90
2023-04-26T17:02:22.641Z,88.00
2023-04-26T17:04:50.648Z,87.50
2023-04-26T17:07:17.391Z,87.30
2023-04-26T17:09:45.437Z,84.00
2023-04-26T17:12:12.084Z,83.40
2023-04-26T17:14:39.960Z,82.80
2023-04-26T17:17:07.990Z,83.20
2023-04-26T17:19:37.845Z,83.10
2023-04-26T17:22:07.975Z,82.50
2023-04-26T17:24:37.521Z,81.90
2023-04-26T17:27:04.293Z,82.30
2023-04-26T17:29:31.356Z,82.50
2023-04-26T17:31:58.106Z,82.20
2023-04-26T17:34:24.812Z,81.60
2023-04-26T17:36:51.568Z,81.90
2023-04-26T17:39:18.279Z,82.80
2023-04-26T17:41:45.038Z,82.80
2023-04-26T17:44:12.810Z,83.80
2023-04-26T17:46:39.901Z,84.30
2023-04-26T17:49:07.600Z,85.00
2023-04-26T17:51:34.331Z,85.90
2023-04-26T17:54:02.310Z,86.30
2023-04-26T17:59:12.099Z,87.10
2023-04-26T18:01:39.832Z,87.50
2023-04-26T18:04:09.291Z,87.30
2023-04-26T18:06:36.148Z,87.80
2023-04-26T18:09:05.487Z,88.40
2023-04-26T18:11:32.203Z,89.10
2023-04-26T18:13:58.902Z,89.70
2023-04-26T18:16:25.662Z,90.00
2023-04-26T18:18:52.425Z,90.10
2023-04-26T18:21:20.175Z,90.40
2023-04-26T18:23:46.872Z,90.80
2023-04-26T18:26:13.548Z,91.20
2023-04-26T18:28:40.271Z,91.40
2023-04-26T18:31:08.470Z,91.70
2023-04-26T18:33:35.191Z,92.00
2023-04-26T18:36:01.970Z,92.20
2023-04-26T18:38:28.799Z,92.30
2023-04-26T18:40:55.505Z,92.50
2023-04-26T18:43:22.187Z,92.90
2023-04-26T18:45:49.492Z,93.10
2023-04-26T18:48:16.372Z,93.30
2023-04-26T18:50:53.054Z,93.60
2023-04-26T18:53:20.148Z,93.90
2023-04-26T18:55:47.241Z,94.00
2023-04-26T18:58:14.273Z,94.30
2023-04-26T19:00:40.984Z,94.50
2023-04-26T19:03:09.191Z,94.70
2023-04-26T19:05:41.114Z,94.70
2023-04-26T19:08:09.288Z,95.00
2023-04-26T19:10:37.550Z,94.90
2023-04-26T19:13:04.266Z,95.00
2023-04-26T19:15:31.015Z,95.30
2023-04-26T19:17:57.733Z,95.40
2023-04-26T19:20:26.249Z,95.60
2023-04-26T19:22:53.034Z,95.90
2023-04-26T19:25:22.092Z,96.00
2023-04-26T19:27:50.617Z,96.20
2023-04-26T19:30:18.607Z,96.70
2023-04-26T19:32:45.937Z,97.10
2023-04-26T19:35:14.409Z,97.50
2023-04-26T19:37:42.780Z,97.90
2023-04-26T19:40:11.904Z,98.10
2023-04-26T19:42:40.671Z,98.30
2023-04-26T19:45:07.832Z,98.30
2023-04-26T19:47:34.528Z,98.50
2023-04-26T19:50:01.210Z,98.80
2023-04-26T19:52:27.957Z,99.10
2023-04-26T19:54:55.085Z,99.20
2023-04-26T19:57:22.248Z,99.40
2023-04-26T19:59:49.977Z,99.80
2023-04-26T20:02:16.830Z,99.80
2023-04-26T20:04:44.711Z,99.90
2023-04-26T20:07:11.422Z,99.90
2023-04-26T20:09:39.390Z,99.90
2023-04-26T20:12:06.334Z,99.90
2023-04-26T20:14:34.163Z,99.90
2023-04-26T20:17:02.409Z,99.90
2023-04-26T20:19:30.177Z,99.90
2023-04-26T20:22:00.420Z,99.90
2023-04-26T20:24:36.776Z,99.90
2023-04-26T20:27:04.781Z,99.90
2023-04-26T20:29:34.139Z,99.90
2023-04-26T20:32:05.220Z,99.90
2023-04-26T20:34:36.630Z,99.90
2023-04-26T20:37:03.282Z,99.90
2023-04-26T20:39:29.962Z,99.90
2023-04-26T20:41:56.691Z,99.90
2023-04-26T20:44:23.395Z,99.90
2023-04-26T20:46:50.150Z,99.90
2023-04-26T20:49:16.841Z,99.90
2023-04-26T20:51:43.514Z,99.90
2023-04-26T20:54:10.226Z,99.90
2023-04-26T20:56:36.962Z,99.90
2023-04-26T20:59:03.618Z,99.90
2023-04-26T21:01:30.369Z,99.90
2023-04-26T21:03:58.964Z,99.90
2023-04-26T21:06:25.857Z,99.90
2023-04-26T21:08:55.162Z,99.90
2023-04-26T21:11:26.268Z,99.90
2023-04-26T21:13:56.470Z,99.90
2023-04-26T21:16:25.509Z,99.90
2023-04-26T21:18:54.577Z,99.90
2023-04-26T21:21:21.289Z,99.90
2023-04-26T21:23:47.997Z,99.90
2023-04-26T21:26:14.672Z,99.90
2023-04-26T21:28:41.361Z,99.90
2023-04-26T21:31:08.028Z,99.90
2023-04-26T21:33:34.716Z,99.90
2023-04-26T21:36:01.417Z,99.90
2023-04-26T21:38:28.093Z,99.90
2023-04-26T21:40:54.804Z,99.90
2023-04-26T21:43:21.507Z,99.90
2023-04-26T21:45:49.588Z,99.90
2023-04-26T21:48:17.724Z,99.90
2023-04-26T21:50:48.325Z,99.90
2023-04-26T21:53:17.032Z,99.90
2023-04-26T21:55:44.016Z,99.90
2023-04-26T21:58:12.237Z,99.90
2023-04-26T22:00:38.883Z,99.90
2023-04-26T22:03:05.833Z,99.90
2023-04-26T22:05:36.177Z,99.90
2023-04-26T22:08:05.576Z,99.90
2023-04-26T22:10:32.235Z,99.90
2023-04-26T22:13:03.277Z,99.90
2023-04-26T22:15:32.394Z,99.90
2023-04-26T22:17:59.401Z,99.90
2023-04-26T22:20:26.116Z,99.90
2023-04-26T22:22:52.766Z,99.90
2023-04-26T22:25:19.549Z,99.90
2023-04-26T22:27:46.203Z,99.90
2023-04-26T22:30:24.918Z,99.90
2023-04-26T22:32:54.552Z,99.90
2023-04-26T22:35:22.150Z,99.90
2023-04-26T22:37:48.970Z,99.90
2023-04-26T22:40:15.985Z,99.90
2023-04-26T22:42:43.367Z,99.90
2023-04-26T22:45:11.489Z,99.90
2023-04-26T22:47:38.925Z,99.90
2023-04-26T22:50:08.102Z,99.90
2023-04-26T22:52:35.522Z,99.90
2023-04-26T22:55:05.714Z,99.90
2023-04-26T22:57:32.908Z,99.90
2023-04-26T22:59:59.616Z,99.90
2023-04-26T23:02:26.411Z,99.90
2023-04-26T23:04:53.199Z,99.90
2023-04-26T23:07:19.862Z,99.90
2023-04-26T23:09:46.589Z,99.90
2023-04-26T23:12:17.653Z,99.90
2023-04-26T23:14:44.395Z,99.90
2023-04-26T23:17:11.190Z,99.90
2023-04-26T23:19:37.950Z,99.90
2023-04-26T23:22:04.629Z,99.90
2023-04-26T23:24:31.321Z,99.90
2023-04-26T23:26:57.998Z,99.90
2023-04-26T23:29:26.032Z,99.90
2023-04-26T23:31:56.057Z,99.90
2023-04-26T23:34:23.442Z,99.90
2023-04-26T23:36:50.148Z,99.90
2023-04-26T23:39:16.821Z,99.90
2023-04-26T23:41:43.611Z,99.90
2023-04-26T23:44:10.266Z,99.90
2023-04-26T23:46:37.015Z,99.90
2023-04-26T23:49:03.799Z,99.90
2023-04-26T23:51:30.650Z,99.90
2023-04-26T23:53:57.346Z,99.90
2023-04-26T23:56:24.037Z,99.90
2023-04-26T23:58:50.677Z,99.90
